sensor_id;sensor_type;location;lat;lon;timestamp;P1;durP1;ratioP1;P2;durP2;ratioP2
66966;SDS011;53900;51.468;-2.586;2023-07-24T00:00:24;5.85;;;1.45;;
66966;SDS011;53900;51.468;-2.586;2023-07-24T00:02:50;3.67;;;1.20;;
66966;SDS011;53900;51.468;-2.586;2023-07-24T00:05:15;6.93;;;1.40;;
66966;SDS011;53900;51.468;-2.586;2023-07-24T00:07:40;5.10;;;1.52;;
66966;SDS011;53900;51.468;-2.586;2023-07-24T00:10:05;3.03;;;1.13;;
66966;SDS011;53900;51.468;-2.586;2023-07-24T00:12:31;4.78;;;1.45;;
66966;SDS011;53900;51.468;-2.586;2023-07-24T00:14:56;6.15;;;1.30;;
66966;SDS011;53900;51.468;-2.586;2023-07-24T00:17:22;4.43;;;1.30;;
66966;SDS011;53900;51.468;-2.586;2023-07-24T00:19:47;28.58;;;2.22;;
66966;SDS011;53900;51.468;-2.586;2023-07-24T00:22:13;5.43;;;1.27;;
66966;SDS011;53900;51.468;-2.586;2023-07-24T00:24:38;4.43;;;1.38;;
66966;SDS011;53900;51.468;-2.586;2023-07-24T00:27:03;6.28;;;1.40;;
66966;SDS011;53900;51.468;-2.586;2023-07-24T00:29:29;6.22;;;1.10;;
66966;SDS011;53900;51.468;-2.586;2023-07-24T00:31:54;5.03;;;1.40;;
66966;SDS011;53900;51.468;-2.586;2023-07-24T00:34:19;3.25;;;1.23;;
66966;SDS011;53900;51.468;-2.586;2023-07-24T00:36:45;2.47;;;1.20;;
66966;SDS011;53900;51.468;-2.586;2023-07-24T00:39:10;4.22;;;1.20;;
66966;SDS011;53900;51.468;-2.586;2023-07-24T00:41:35;2.88;;;1.52;;
66966;SDS011;53900;51.468;-2.586;2023-07-24T00:44:00;3.83;;;1.33;;
66966;SDS011;53900;51.468;-2.586;2023-07-24T00:46:25;4.65;;;1.42;;
66966;SDS011;53900;51.468;-2.586;2023-07-24T00:48:51;5.85;;;2.00;;
66966;SDS011;53900;51.468;-2.586;2023-07-24T00:51:17;2.78;;;1.25;;
66966;SDS011;53900;51.468;-2.586;2023-07-24T00:53:43;5.22;;;1.20;;
66966;SDS011;53900;51.468;-2.586;2023-07-24T00:56:08;4.68;;;1.20;;
66966;SDS011;53900;51.468;-2.586;2023-07-24T00:58:35;3.17;;;1.35;;
66966;SDS011;53900;51.468;-2.586;2023-07-24T01:01:01;6.72;;;1.52;;
66966;SDS011;53900;51.468;-2.586;2023-07-24T01:03:29;5.97;;;1.38;;
66966;SDS011;53900;51.468;-2.586;2023-07-24T01:05:56;3.03;;;1.35;;
66966;SDS011;53900;51.468;-2.586;2023-07-24T01:08:22;5.70;;;1.30;;
66966;SDS011;53900;51.468;-2.586;2023-07-24T01:10:47;3.55;;;1.55;;
66966;SDS011;53900;51.468;-2.586;2023-07-24T01:13:17;6.72;;;1.70;;
66966;SDS011;53900;51.468;-2.586;2023-07-24T01:15:57;5.10;;;1.08;;
66966;SDS011;53900;51.468;-2.586;2023-07-24T01:18:24;7.78;;;1.35;;
66966;SDS011;53900;51.468;-2.586;2023-07-24T01:20:50;5.25;;;1.33;;
66966;SDS011;53900;51.468;-2.586;2023-07-24T01:26:00;7.90;;;2.10;;
66966;SDS011;53900;51.468;-2.586;2023-07-24T01:28:27;3.08;;;1.38;;
66966;SDS011;53900;51.468;-2.586;2023-07-24T01:30:52;3.50;;;1.20;;
66966;SDS011;53900;51.468;-2.586;2023-07-24T01:33:18;5.40;;;1.40;;
66966;SDS011;53900;51.468;-2.586;2023-07-24T01:35:44;6.50;;;1.38;;
66966;SDS011;53900;51.468;-2.586;2023-07-24T01:38:10;3.63;;;1.35;;
66966;SDS011;53900;51.468;-2.586;2023-07-24T01:40:37;5.03;;;1.63;;
66966;SDS011;53900;51.468;-2.586;2023-07-24T01:43:03;4.30;;;2.20;;
66966;SDS011;53900;51.468;-2.586;2023-07-24T01:45:28;3.67;;;1.27;;
66966;SDS011;53900;51.468;-2.586;2023-07-24T01:47:53;5.70;;;1.42;;
66966;SDS011;53900;51.468;-2.586;2023-07-24T01:50:19;5.25;;;1.48;;
66966;SDS011;53900;51.468;-2.586;2023-07-24T01:52:44;5.38;;;1.58;;
66966;SDS011;53900;51.468;-2.586;2023-07-24T01:55:10;7.25;;;2.30;;
66966;SDS011;53900;51.468;-2.586;2023-07-24T01:57:35;6.38;;;1.52;;
66966;SDS011;53900;51.468;-2.586;2023-07-24T02:00:00;2.10;;;1.27;;
66966;SDS011;53900;51.468;-2.586;2023-07-24T02:02:26;6.10;;;1.40;;
66966;SDS011;53900;51.468;-2.586;2023-07-24T02:04:51;5.20;;;1.27;;
66966;SDS011;53900;51.468;-2.586;2023-07-24T02:07:16;4.47;;;1.40;;
66966;SDS011;53900;51.468;-2.586;2023-07-24T02:09:41;1.50;;;1.20;;
66966;SDS011;53900;51.468;-2.586;2023-07-24T02:12:07;2.92;;;1.23;;
66966;SDS011;53900;51.468;-2.586;2023-07-24T02:14:32;3.08;;;1.30;;
66966;SDS011;53900;51.468;-2.586;2023-07-24T02:16:57;2.90;;;1.20;;
66966;SDS011;53900;51.468;-2.586;2023-07-24T02:19:22;5.13;;;1.50;;
66966;SDS011;53900;51.468;-2.586;2023-07-24T02:21:48;9.82;;;1.73;;
66966;SDS011;53900;51.468;-2.586;2023-07-24T02:24:13;3.28;;;1.08;;
66966;SDS011;53900;51.468;-2.586;2023-07-24T02:26:38;6.00;;;1.38;;
66966;SDS011;53900;51.468;-2.586;2023-07-24T02:29:03;8.35;;;1.70;;
66966;SDS011;53900;51.468;-2.586;2023-07-24T02:31:29;3.60;;;1.50;;
66966;SDS011;53900;51.468;-2.586;2023-07-24T02:33:54;2.42;;;1.20;;
66966;SDS011;53900;51.468;-2.586;2023-07-24T02:36:19;5.85;;;1.50;;
66966;SDS011;53900;51.468;-2.586;2023-07-24T02:38:44;4.93;;;1.58;;
66966;SDS011;53900;51.468;-2.586;2023-07-24T02:41:10;6.43;;;1.67;;
66966;SDS011;53900;51.468;-2.586;2023-07-24T02:43:35;8.25;;;1.48;;
66966;SDS011;53900;51.468;-2.586;2023-07-24T02:46:03;4.82;;;1.30;;
66966;SDS011;53900;51.468;-2.586;2023-07-24T02:48:29;4.05;;;1.25;;
66966;SDS011;53900;51.468;-2.586;2023-07-24T02:50:54;3.72;;;1.20;;
66966;SDS011;53900;51.468;-2.586;2023-07-24T02:53:20;4.88;;;1.27;;
66966;SDS011;53900;51.468;-2.586;2023-07-24T02:55:45;6.82;;;1.98;;
66966;SDS011;53900;51.468;-2.586;2023-07-24T02:58:13;6.90;;;1.60;;
66966;SDS011;53900;51.468;-2.586;2023-07-24T03:00:39;6.43;;;1.75;;
66966;SDS011;53900;51.468;-2.586;2023-07-24T03:03:04;4.00;;;1.40;;
66966;SDS011;53900;51.468;-2.586;2023-07-24T03:05:30;6.25;;;1.60;;
66966;SDS011;53900;51.468;-2.586;2023-07-24T03:07:55;7.35;;;2.67;;
66966;SDS011;53900;51.468;-2.586;2023-07-24T03:10:20;3.90;;;1.27;;
66966;SDS011;53900;51.468;-2.586;2023-07-24T03:12:46;7.65;;;1.20;;
66966;SDS011;53900;51.468;-2.586;2023-07-24T03:15:11;3.88;;;1.20;;
66966;SDS011;53900;51.468;-2.586;2023-07-24T03:17:36;3.25;;;1.42;;
66966;SDS011;53900;51.468;-2.586;2023-07-24T03:20:08;2.58;;;0.95;;
66966;SDS011;53900;51.468;-2.586;2023-07-24T03:22:34;5.15;;;1.15;;
66966;SDS011;53900;51.468;-2.586;2023-07-24T03:24:59;4.00;;;1.35;;
66966;SDS011;53900;51.468;-2.586;2023-07-24T03:27:24;4.35;;;1.13;;
66966;SDS011;53900;51.468;-2.586;2023-07-24T03:29:49;2.47;;;1.30;;
66966;SDS011;53900;51.468;-2.586;2023-07-24T03:32:15;1.58;;;1.00;;
66966;SDS011;53900;51.468;-2.586;2023-07-24T03:34:40;2.63;;;1.50;;
66966;SDS011;53900;51.468;-2.586;2023-07-24T03:37:05;2.70;;;1.10;;
66966;SDS011;53900;51.468;-2.586;2023-07-24T03:39:30;6.93;;;1.20;;
66966;SDS011;53900;51.468;-2.586;2023-07-24T03:41:56;1.88;;;1.30;;
66966;SDS011;53900;51.468;-2.586;2023-07-24T03:44:21;3.35;;;1.02;;
66966;SDS011;53900;51.468;-2.586;2023-07-24T03:46:46;3.78;;;1.15;;
66966;SDS011;53900;51.468;-2.586;2023-07-24T03:49:12;1.30;;;1.00;;
66966;SDS011;53900;51.468;-2.586;2023-07-24T03:51:37;3.92;;;1.10;;
66966;SDS011;53900;51.468;-2.586;2023-07-24T03:54:02;2.58;;;1.42;;
66966;SDS011;53900;51.468;-2.586;2023-07-24T03:56:27;2.28;;;1.30;;
66966;SDS011;53900;51.468;-2.586;2023-07-24T03:58:53;2.55;;;1.20;;
66966;SDS011;53900;51.468;-2.586;2023-07-24T04:01:18;3.47;;;1.23;;
66966;SDS011;53900;51.468;-2.586;2023-07-24T04:03:43;3.38;;;1.40;;
66966;SDS011;53900;51.468;-2.586;2023-07-24T04:06:09;3.22;;;1.10;;
66966;SDS011;53900;51.468;-2.586;2023-07-24T04:08:34;2.42;;;1.10;;
66966;SDS011;53900;51.468;-2.586;2023-07-24T04:11:00;3.60;;;1.20;;
66966;SDS011;53900;51.468;-2.586;2023-07-24T04:13:25;6.00;;;1.30;;
66966;SDS011;53900;51.468;-2.586;2023-07-24T04:15:50;2.78;;;1.10;;
66966;SDS011;53900;51.468;-2.586;2023-07-24T04:18:15;2.08;;;1.10;;
66966;SDS011;53900;51.468;-2.586;2023-07-24T04:20:41;2.30;;;0.90;;
66966;SDS011;53900;51.468;-2.586;2023-07-24T04:23:06;3.33;;;1.10;;
66966;SDS011;53900;51.468;-2.586;2023-07-24T04:25:31;1.90;;;1.02;;
66966;SDS011;53900;51.468;-2.586;2023-07-24T04:27:56;3.30;;;1.00;;
66966;SDS011;53900;51.468;-2.586;2023-07-24T04:30:21;2.10;;;1.13;;
66966;SDS011;53900;51.468;-2.586;2023-07-24T04:32:47;2.08;;;1.40;;
66966;SDS011;53900;51.468;-2.586;2023-07-24T04:35:12;3.17;;;1.58;;
66966;SDS011;53900;51.468;-2.586;2023-07-24T04:37:38;5.72;;;1.40;;
66966;SDS011;53900;51.468;-2.586;2023-07-24T04:40:03;4.10;;;1.30;;
66966;SDS011;53900;51.468;-2.586;2023-07-24T04:42:28;3.03;;;1.20;;
66966;SDS011;53900;51.468;-2.586;2023-07-24T04:44:54;2.65;;;1.27;;
66966;SDS011;53900;51.468;-2.586;2023-07-24T04:47:19;3.65;;;1.23;;
66966;SDS011;53900;51.468;-2.586;2023-07-24T04:49:45;4.07;;;1.25;;
66966;SDS011;53900;51.468;-2.586;2023-07-24T04:52:10;4.70;;;1.63;;
66966;SDS011;53900;51.468;-2.586;2023-07-24T04:54:35;4.90;;;2.05;;
66966;SDS011;53900;51.468;-2.586;2023-07-24T04:57:00;1.83;;;1.10;;
66966;SDS011;53900;51.468;-2.586;2023-07-24T04:59:26;5.60;;;1.67;;
66966;SDS011;53900;51.468;-2.586;2023-07-24T05:01:51;3.97;;;1.30;;
66966;SDS011;53900;51.468;-2.586;2023-07-24T05:04:16;2.92;;;1.40;;
66966;SDS011;53900;51.468;-2.586;2023-07-24T05:06:41;4.05;;;1.58;;
66966;SDS011;53900;51.468;-2.586;2023-07-24T05:09:07;3.97;;;1.50;;
66966;SDS011;53900;51.468;-2.586;2023-07-24T05:11:32;2.75;;;1.33;;
66966;SDS011;53900;51.468;-2.586;2023-07-24T05:13:57;3.63;;;1.40;;
66966;SDS011;53900;51.468;-2.586;2023-07-24T05:16:22;2.33;;;1.30;;
66966;SDS011;53900;51.468;-2.586;2023-07-24T05:18:48;4.20;;;1.60;;
66966;SDS011;53900;51.468;-2.586;2023-07-24T05:21:13;5.68;;;1.83;;
66966;SDS011;53900;51.468;-2.586;2023-07-24T05:23:38;2.60;;;1.60;;
66966;SDS011;53900;51.468;-2.586;2023-07-24T05:26:04;4.03;;;1.30;;
66966;SDS011;53900;51.468;-2.586;2023-07-24T05:28:30;2.60;;;1.33;;
66966;SDS011;53900;51.468;-2.586;2023-07-24T05:30:55;2.47;;;1.40;;
66966;SDS011;53900;51.468;-2.586;2023-07-24T05:33:20;2.35;;;1.10;;
66966;SDS011;53900;51.468;-2.586;2023-07-24T05:35:46;3.08;;;1.20;;
66966;SDS011;53900;51.468;-2.586;2023-07-24T05:38:11;3.00;;;1.40;;
66966;SDS011;53900;51.468;-2.586;2023-07-24T05:40:36;2.40;;;1.30;;
66966;SDS011;53900;51.468;-2.586;2023-07-24T05:43:02;3.40;;;1.30;;
66966;SDS011;53900;51.468;-2.586;2023-07-24T05:45:28;3.25;;;1.48;;
66966;SDS011;53900;51.468;-2.586;2023-07-24T05:47:54;2.65;;;1.13;;
66966;SDS011;53900;51.468;-2.586;2023-07-24T05:50:19;3.30;;;1.50;;
66966;SDS011;53900;51.468;-2.586;2023-07-24T05:52:45;3.08;;;1.58;;
66966;SDS011;53900;51.468;-2.586;2023-07-24T05:55:10;2.38;;;1.42;;
66966;SDS011;53900;51.468;-2.586;2023-07-24T05:57:35;2.83;;;1.48;;
66966;SDS011;53900;51.468;-2.586;2023-07-24T06:00:02;4.13;;;1.70;;
66966;SDS011;53900;51.468;-2.586;2023-07-24T06:02:27;1.38;;;1.27;;
66966;SDS011;53900;51.468;-2.586;2023-07-24T06:04:52;5.05;;;1.48;;
66966;SDS011;53900;51.468;-2.586;2023-07-24T06:07:17;7.88;;;1.58;;
66966;SDS011;53900;51.468;-2.586;2023-07-24T06:09:43;4.00;;;0.90;;
66966;SDS011;53900;51.468;-2.586;2023-07-24T06:12:08;1.08;;;0.90;;
66966;SDS011;53900;51.468;-2.586;2023-07-24T06:14:33;0.35;;;0.35;;
66966;SDS011;53900;51.468;-2.586;2023-07-24T06:16:58;0.90;;;0.40;;
66966;SDS011;53900;51.468;-2.586;2023-07-24T06:19:24;0.40;;;0.40;;
66966;SDS011;53900;51.468;-2.586;2023-07-24T06:21:49;1.48;;;0.50;;
66966;SDS011;53900;51.468;-2.586;2023-07-24T06:24:14;1.15;;;0.60;;
66966;SDS011;53900;51.468;-2.586;2023-07-24T06:26:39;0.40;;;0.40;;
66966;SDS011;53900;51.468;-2.586;2023-07-24T06:29:05;0.32;;;0.32;;
66966;SDS011;53900;51.468;-2.586;2023-07-24T06:31:30;0.32;;;0.32;;
66966;SDS011;53900;51.468;-2.586;2023-07-24T06:33:55;0.55;;;0.43;;
66966;SDS011;53900;51.468;-2.586;2023-07-24T06:36:21;0.50;;;0.50;;
66966;SDS011;53900;51.468;-2.586;2023-07-24T06:38:46;0.40;;;0.40;;
66966;SDS011;53900;51.468;-2.586;2023-07-24T06:41:12;0.70;;;0.40;;
66966;SDS011;53900;51.468;-2.586;2023-07-24T06:43:37;0.20;;;0.20;;
66966;SDS011;53900;51.468;-2.586;2023-07-24T06:46:03;0.13;;;0.13;;
66966;SDS011;53900;51.468;-2.586;2023-07-24T06:48:28;0.25;;;0.20;;
66966;SDS011;53900;51.468;-2.586;2023-07-24T06:50:54;0.08;;;0.08;;
66966;SDS011;53900;51.468;-2.586;2023-07-24T06:53:19;0.20;;;0.20;;
66966;SDS011;53900;51.468;-2.586;2023-07-24T06:55:44;0.10;;;0.10;;
66966;SDS011;53900;51.468;-2.586;2023-07-24T06:58:10;0.22;;;0.22;;
66966;SDS011;53900;51.468;-2.586;2023-07-24T07:00:35;0.10;;;0.10;;
66966;SDS011;53900;51.468;-2.586;2023-07-24T07:03:00;0.10;;;0.10;;
66966;SDS011;53900;51.468;-2.586;2023-07-24T07:05:25;0.50;;;0.10;;
66966;SDS011;53900;51.468;-2.586;2023-07-24T07:07:51;0.20;;;0.10;;
66966;SDS011;53900;51.468;-2.586;2023-07-24T07:10:16;0.17;;;0.17;;
66966;SDS011;53900;51.468;-2.586;2023-07-24T07:12:41;0.00;;;0.00;;
66966;SDS011;53900;51.468;-2.586;2023-07-24T07:15:07;0.38;;;0.10;;
66966;SDS011;53900;51.468;-2.586;2023-07-24T07:17:32;0.08;;;0.08;;
66966;SDS011;53900;51.468;-2.586;2023-07-24T07:19:57;0.03;;;0.03;;
66966;SDS011;53900;51.468;-2.586;2023-07-24T07:22:22;0.10;;;0.10;;
66966;SDS011;53900;51.468;-2.586;2023-07-24T07:24:48;0.73;;;0.15;;
66966;SDS011;53900;51.468;-2.586;2023-07-24T07:27:13;0.30;;;0.20;;
66966;SDS011;53900;51.468;-2.586;2023-07-24T07:29:42;0.05;;;0.05;;
66966;SDS011;53900;51.468;-2.586;2023-07-24T07:32:07;2.05;;;0.20;;
66966;SDS011;53900;51.468;-2.586;2023-07-24T07:34:33;0.10;;;0.10;;
66966;SDS011;53900;51.468;-2.586;2023-07-24T07:36:59;0.20;;;0.20;;
66966;SDS011;53900;51.468;-2.586;2023-07-24T07:39:25;0.08;;;0.08;;
66966;SDS011;53900;51.468;-2.586;2023-07-24T07:41:50;0.00;;;0.00;;
66966;SDS011;53900;51.468;-2.586;2023-07-24T07:44:15;0.15;;;0.10;;
66966;SDS011;53900;51.468;-2.586;2023-07-24T07:46:40;2.17;;;0.25;;
66966;SDS011;53900;51.468;-2.586;2023-07-24T07:49:05;0.10;;;0.10;;
66966;SDS011;53900;51.468;-2.586;2023-07-24T07:51:31;0.85;;;0.40;;
66966;SDS011;53900;51.468;-2.586;2023-07-24T07:53:56;1.00;;;0.10;;
66966;SDS011;53900;51.468;-2.586;2023-07-24T07:56:21;0.15;;;0.15;;
66966;SDS011;53900;51.468;-2.586;2023-07-24T07:58:46;0.32;;;0.20;;
66966;SDS011;53900;51.468;-2.586;2023-07-24T08:01:12;0.20;;;0.10;;
66966;SDS011;53900;51.468;-2.586;2023-07-24T08:03:37;8.68;;;0.45;;
66966;SDS011;53900;51.468;-2.586;2023-07-24T08:06:02;0.08;;;0.08;;
66966;SDS011;53900;51.468;-2.586;2023-07-24T08:08:27;0.20;;;0.20;;
66966;SDS011;53900;51.468;-2.586;2023-07-24T08:10:53;0.30;;;0.20;;
66966;SDS011;53900;51.468;-2.586;2023-07-24T08:13:18;0.10;;;0.10;;
66966;SDS011;53900;51.468;-2.586;2023-07-24T08:15:43;0.80;;;0.20;;
66966;SDS011;53900;51.468;-2.586;2023-07-24T08:18:08;0.20;;;0.17;;
66966;SDS011;53900;51.468;-2.586;2023-07-24T08:20:37;0.45;;;0.13;;
66966;SDS011;53900;51.468;-2.586;2023-07-24T08:23:03;0.60;;;0.30;;
66966;SDS011;53900;51.468;-2.586;2023-07-24T08:25:28;0.60;;;0.10;;
66966;SDS011;53900;51.468;-2.586;2023-07-24T08:27:54;0.47;;;0.20;;
66966;SDS011;53900;51.468;-2.586;2023-07-24T08:30:19;0.40;;;0.20;;
66966;SDS011;53900;51.468;-2.586;2023-07-24T08:32:44;0.30;;;0.20;;
66966;SDS011;53900;51.468;-2.586;2023-07-24T08:35:09;0.22;;;0.22;;
66966;SDS011;53900;51.468;-2.586;2023-07-24T08:37:35;26.02;;;1.70;;
66966;SDS011;53900;51.468;-2.586;2023-07-24T08:40:00;0.20;;;0.20;;
66966;SDS011;53900;51.468;-2.586;2023-07-24T08:42:25;0.30;;;0.30;;
66966;SDS011;53900;51.468;-2.586;2023-07-24T08:44:51;0.20;;;0.20;;
66966;SDS011;53900;51.468;-2.586;2023-07-24T08:47:18;0.30;;;0.30;;
66966;SDS011;53900;51.468;-2.586;2023-07-24T08:49:43;1.80;;;0.28;;
66966;SDS011;53900;51.468;-2.586;2023-07-24T08:52:09;0.20;;;0.20;;
66966;SDS011;53900;51.468;-2.586;2023-07-24T08:54:38;0.28;;;0.20;;
66966;SDS011;53900;51.468;-2.586;2023-07-24T08:57:07;2.58;;;0.32;;
66966;SDS011;53900;51.468;-2.586;2023-07-24T08:59:32;0.85;;;0.38;;
66966;SDS011;53900;51.468;-2.586;2023-07-24T09:01:57;0.30;;;0.30;;
66966;SDS011;53900;51.468;-2.586;2023-07-24T09:04:23;3.20;;;0.20;;
66966;SDS011;53900;51.468;-2.586;2023-07-24T09:06:49;0.20;;;0.20;;
66966;SDS011;53900;51.468;-2.586;2023-07-24T09:09:15;2.67;;;0.32;;
66966;SDS011;53900;51.468;-2.586;2023-07-24T09:11:49;1.00;;;0.30;;
66966;SDS011;53900;51.468;-2.586;2023-07-24T09:14:21;1.10;;;0.20;;
66966;SDS011;53900;51.468;-2.586;2023-07-24T09:16:46;1.35;;;0.35;;
66966;SDS011;53900;51.468;-2.586;2023-07-24T09:19:18;1.60;;;0.30;;
66966;SDS011;53900;51.468;-2.586;2023-07-24T09:21:43;1.08;;;0.43;;
66966;SDS011;53900;51.468;-2.586;2023-07-24T09:24:12;0.77;;;0.30;;
66966;SDS011;53900;51.468;-2.586;2023-07-24T09:26:47;0.60;;;0.40;;
66966;SDS011;53900;51.468;-2.586;2023-07-24T09:29:13;0.55;;;0.30;;
66966;SDS011;53900;51.468;-2.586;2023-07-24T09:31:38;0.30;;;0.30;;
66966;SDS011;53900;51.468;-2.586;2023-07-24T09:34:03;0.45;;;0.45;;
66966;SDS011;53900;51.468;-2.586;2023-07-24T09:36:36;0.30;;;0.30;;
66966;SDS011;53900;51.468;-2.586;2023-07-24T09:39:02;0.90;;;0.35;;
66966;SDS011;53900;51.468;-2.586;2023-07-24T09:41:31;0.33;;;0.33;;
66966;SDS011;53900;51.468;-2.586;2023-07-24T09:43:59;0.55;;;0.30;;
66966;SDS011;53900;51.468;-2.586;2023-07-24T09:46:24;0.40;;;0.40;;
66966;SDS011;53900;51.468;-2.586;2023-07-24T09:48:50;0.40;;;0.40;;
66966;SDS011;53900;51.468;-2.586;2023-07-24T09:51:15;0.50;;;0.50;;
66966;SDS011;53900;51.468;-2.586;2023-07-24T09:53:51;0.30;;;0.30;;
66966;SDS011;53900;51.468;-2.586;2023-07-24T09:56:19;0.57;;;0.57;;
66966;SDS011;53900;51.468;-2.586;2023-07-24T09:58:45;0.55;;;0.55;;
66966;SDS011;53900;51.468;-2.586;2023-07-24T10:01:11;0.63;;;0.50;;
66966;SDS011;53900;51.468;-2.586;2023-07-24T10:03:40;0.60;;;0.60;;
66966;SDS011;53900;51.468;-2.586;2023-07-24T10:06:08;1.85;;;0.40;;
66966;SDS011;53900;51.468;-2.586;2023-07-24T10:08:35;0.55;;;0.50;;
66966;SDS011;53900;51.468;-2.586;2023-07-24T10:11:01;0.55;;;0.55;;
66966;SDS011;53900;51.468;-2.586;2023-07-24T10:13:26;5.68;;;0.80;;
66966;SDS011;53900;51.468;-2.586;2023-07-24T10:15:52;0.60;;;0.60;;
66966;SDS011;53900;51.468;-2.586;2023-07-24T10:18:17;3.90;;;0.70;;
66966;SDS011;53900;51.468;-2.586;2023-07-24T10:20:59;0.68;;;0.60;;
66966;SDS011;53900;51.468;-2.586;2023-07-24T10:23:24;0.30;;;0.30;;
66966;SDS011;53900;51.468;-2.586;2023-07-24T10:25:51;1.42;;;0.50;;
66966;SDS011;53900;51.468;-2.586;2023-07-24T10:28:17;0.40;;;0.40;;
66966;SDS011;53900;51.468;-2.586;2023-07-24T10:30:43;0.30;;;0.30;;
66966;SDS011;53900;51.468;-2.586;2023-07-24T10:33:09;1.25;;;0.50;;
66966;SDS011;53900;51.468;-2.586;2023-07-24T10:35:43;0.50;;;0.50;;
66966;SDS011;53900;51.468;-2.586;2023-07-24T10:38:08;0.52;;;0.50;;
66966;SDS011;53900;51.468;-2.586;2023-07-24T10:40:34;0.80;;;0.50;;
66966;SDS011;53900;51.468;-2.586;2023-07-24T10:43:09;2.97;;;0.50;;
66966;SDS011;53900;51.468;-2.586;2023-07-24T10:45:38;0.40;;;0.35;;
66966;SDS011;53900;51.468;-2.586;2023-07-24T10:48:04;0.43;;;0.40;;
66966;SDS011;53900;51.468;-2.586;2023-07-24T10:50:36;0.50;;;0.40;;
66966;SDS011;53900;51.468;-2.586;2023-07-24T10:53:01;0.47;;;0.47;;
66966;SDS011;53900;51.468;-2.586;2023-07-24T10:55:27;0.90;;;0.47;;
66966;SDS011;53900;51.468;-2.586;2023-07-24T10:57:52;0.55;;;0.50;;
66966;SDS011;53900;51.468;-2.586;2023-07-24T11:00:18;0.45;;;0.45;;
66966;SDS011;53900;51.468;-2.586;2023-07-24T11:02:43;0.32;;;0.32;;
66966;SDS011;53900;51.468;-2.586;2023-07-24T11:05:08;0.90;;;0.50;;
66966;SDS011;53900;51.468;-2.586;2023-07-24T11:07:33;0.75;;;0.40;;
66966;SDS011;53900;51.468;-2.586;2023-07-24T11:09:59;0.50;;;0.50;;
66966;SDS011;53900;51.468;-2.586;2023-07-24T11:12:24;0.50;;;0.50;;
66966;SDS011;53900;51.468;-2.586;2023-07-24T11:14:52;0.40;;;0.40;;
66966;SDS011;53900;51.468;-2.586;2023-07-24T11:17:20;1.77;;;0.47;;
66966;SDS011;53900;51.468;-2.586;2023-07-24T11:19:46;0.32;;;0.32;;
66966;SDS011;53900;51.468;-2.586;2023-07-24T11:22:11;3.75;;;0.77;;
66966;SDS011;53900;51.468;-2.586;2023-07-24T11:24:46;1.55;;;0.50;;
66966;SDS011;53900;51.468;-2.586;2023-07-24T11:27:15;0.47;;;0.40;;
66966;SDS011;53900;51.468;-2.586;2023-07-24T11:29:41;0.70;;;0.70;;
66966;SDS011;53900;51.468;-2.586;2023-07-24T11:32:06;2.50;;;0.98;;
66966;SDS011;53900;51.468;-2.586;2023-07-24T11:34:31;1.58;;;0.80;;
66966;SDS011;53900;51.468;-2.586;2023-07-24T11:36:57;1.00;;;0.60;;
66966;SDS011;53900;51.468;-2.586;2023-07-24T11:39:23;1.13;;;0.47;;
66966;SDS011;53900;51.468;-2.586;2023-07-24T11:41:48;0.50;;;0.50;;
66966;SDS011;53900;51.468;-2.586;2023-07-24T11:44:14;0.60;;;0.60;;
66966;SDS011;53900;51.468;-2.586;2023-07-24T11:46:41;1.65;;;0.60;;
66966;SDS011;53900;51.468;-2.586;2023-07-24T11:49:07;2.05;;;0.70;;
66966;SDS011;53900;51.468;-2.586;2023-07-24T11:51:32;0.75;;;0.60;;
66966;SDS011;53900;51.468;-2.586;2023-07-24T11:54:08;1.02;;;0.93;;
66966;SDS011;53900;51.468;-2.586;2023-07-24T11:56:34;1.73;;;0.70;;
66966;SDS011;53900;51.468;-2.586;2023-07-24T11:59:08;0.95;;;0.70;;
66966;SDS011;53900;51.468;-2.586;2023-07-24T12:01:34;1.30;;;0.88;;
66966;SDS011;53900;51.468;-2.586;2023-07-24T12:03:59;2.22;;;0.88;;
66966;SDS011;53900;51.468;-2.586;2023-07-24T12:06:25;1.63;;;0.60;;
66966;SDS011;53900;51.468;-2.586;2023-07-24T12:08:51;1.20;;;0.73;;
66966;SDS011;53900;51.468;-2.586;2023-07-24T12:11:17;5.03;;;0.90;;
66966;SDS011;53900;51.468;-2.586;2023-07-24T12:13:43;5.78;;;0.60;;
66966;SDS011;53900;51.468;-2.586;2023-07-24T12:16:08;2.42;;;0.70;;
66966;SDS011;53900;51.468;-2.586;2023-07-24T12:18:33;0.65;;;0.60;;
66966;SDS011;53900;51.468;-2.586;2023-07-24T12:20:59;1.98;;;0.70;;
66966;SDS011;53900;51.468;-2.586;2023-07-24T12:23:25;1.52;;;0.73;;
66966;SDS011;53900;51.468;-2.586;2023-07-24T12:25:50;1.98;;;0.68;;
66966;SDS011;53900;51.468;-2.586;2023-07-24T12:28:15;2.05;;;0.70;;
66966;SDS011;53900;51.468;-2.586;2023-07-24T12:30:40;1.65;;;0.70;;
66966;SDS011;53900;51.468;-2.586;2023-07-24T12:33:06;3.85;;;0.80;;
66966;SDS011;53900;51.468;-2.586;2023-07-24T12:35:31;1.17;;;0.75;;
66966;SDS011;53900;51.468;-2.586;2023-07-24T12:37:56;1.10;;;0.73;;
66966;SDS011;53900;51.468;-2.586;2023-07-24T12:40:22;1.58;;;0.80;;
66966;SDS011;53900;51.468;-2.586;2023-07-24T12:42:47;0.80;;;0.80;;
66966;SDS011;53900;51.468;-2.586;2023-07-24T12:45:13;1.40;;;0.90;;
66966;SDS011;53900;51.468;-2.586;2023-07-24T12:47:38;1.85;;;0.90;;
66966;SDS011;53900;51.468;-2.586;2023-07-24T12:50:03;0.80;;;0.70;;
66966;SDS011;53900;51.468;-2.586;2023-07-24T12:52:29;1.67;;;1.00;;
66966;SDS011;53900;51.468;-2.586;2023-07-24T12:54:54;1.77;;;0.98;;
66966;SDS011;53900;51.468;-2.586;2023-07-24T12:57:19;3.42;;;1.00;;
66966;SDS011;53900;51.468;-2.586;2023-07-24T12:59:45;2.83;;;1.10;;
66966;SDS011;53900;51.468;-2.586;2023-07-24T13:02:10;1.27;;;0.77;;
66966;SDS011;53900;51.468;-2.586;2023-07-24T13:04:35;4.30;;;1.20;;
66966;SDS011;53900;51.468;-2.586;2023-07-24T13:07:01;3.35;;;1.20;;
66966;SDS011;53900;51.468;-2.586;2023-07-24T13:09:27;2.08;;;1.10;;
66966;SDS011;53900;51.468;-2.586;2023-07-24T13:11:52;4.05;;;1.10;;
66966;SDS011;53900;51.468;-2.586;2023-07-24T13:14:19;5.50;;;1.10;;
66966;SDS011;53900;51.468;-2.586;2023-07-24T13:16:44;1.20;;;1.10;;
66966;SDS011;53900;51.468;-2.586;2023-07-24T13:19:10;3.22;;;1.48;;
66966;SDS011;53900;51.468;-2.586;2023-07-24T13:21:35;2.67;;;1.13;;
66966;SDS011;53900;51.468;-2.586;2023-07-24T13:24:00;1.83;;;1.23;;
66966;SDS011;53900;51.468;-2.586;2023-07-24T13:26:25;2.58;;;1.20;;
66966;SDS011;53900;51.468;-2.586;2023-07-24T13:28:51;3.78;;;1.10;;
66966;SDS011;53900;51.468;-2.586;2023-07-24T13:33:41;3.45;;;1.25;;
66966;SDS011;53900;51.468;-2.586;2023-07-24T13:36:07;1.95;;;1.10;;
66966;SDS011;53900;51.468;-2.586;2023-07-24T13:38:32;2.03;;;1.10;;
66966;SDS011;53900;51.468;-2.586;2023-07-24T13:40:58;2.00;;;1.33;;
66966;SDS011;53900;51.468;-2.586;2023-07-24T13:43:23;2.67;;;1.02;;
66966;SDS011;53900;51.468;-2.586;2023-07-24T13:45:48;1.10;;;1.00;;
66966;SDS011;53900;51.468;-2.586;2023-07-24T13:48:14;2.20;;;1.20;;
66966;SDS011;53900;51.468;-2.586;2023-07-24T13:50:39;4.72;;;1.00;;
66966;SDS011;53900;51.468;-2.586;2023-07-24T13:53:04;3.00;;;0.90;;
66966;SDS011;53900;51.468;-2.586;2023-07-24T13:55:30;1.75;;;0.95;;
66966;SDS011;53900;51.468;-2.586;2023-07-24T13:57:55;2.90;;;1.00;;
66966;SDS011;53900;51.468;-2.586;2023-07-24T14:00:20;2.40;;;0.90;;
66966;SDS011;53900;51.468;-2.586;2023-07-24T14:02:46;2.70;;;1.20;;
66966;SDS011;53900;51.468;-2.586;2023-07-24T14:05:11;1.73;;;0.90;;
66966;SDS011;53900;51.468;-2.586;2023-07-24T14:07:36;2.08;;;1.10;;
66966;SDS011;53900;51.468;-2.586;2023-07-24T14:10:01;7.00;;;1.42;;
66966;SDS011;53900;51.468;-2.586;2023-07-24T14:12:27;2.85;;;1.15;;
66966;SDS011;53900;51.468;-2.586;2023-07-24T14:14:52;3.72;;;1.08;;
66966;SDS011;53900;51.468;-2.586;2023-07-24T14:17:17;3.97;;;1.25;;
66966;SDS011;53900;51.468;-2.586;2023-07-24T14:19:44;1.90;;;1.35;;
66966;SDS011;53900;51.468;-2.586;2023-07-24T14:22:09;9.82;;;1.33;;
66966;SDS011;53900;51.468;-2.586;2023-07-24T14:24:34;2.88;;;1.20;;
66966;SDS011;53900;51.468;-2.586;2023-07-24T14:26:59;3.70;;;1.55;;
66966;SDS011;53900;51.468;-2.586;2023-07-24T14:29:25;6.65;;;1.65;;